Taipak, Kazakhstan
Current Conditions -  °F | °C
As of 8:00 AM on Friday 28 Nov 2014 (Local Time) from UATG Reporting Station
Clear Clear  
Wind Chill: -23°   Ceiling: Unl
Heat Index: -15°   Visibility: 6mi
Dew Point: -20°   Wind: 9mph
Humidity: 66%   Direction: 70°ENE
Pressure: 30.56"   Gusts: NA
Location:  49.05°N, 51.87°E
Report Text: UATG 280400Z 07004MPS CAVOK M15/M20 Q1035 R14/CLRD70 NOSIG RMKQFE779/1038
Loading
Personal Weather Stations






























Interactive Weather Map New forecast layout! Learn more

10-Day Weather Forecast

Advertisements
Track Severe Weather on mobile